Time;durP1;ratioP1;P1;durP2;ratioP2;P2;SDS_P1;SDS_P2;PMS_P1;PMS_P2;Temp;Humidity;BMP_temperature;BMP_pressure;BME280_temperature;BME280_humidity;BME280_pressure;Samples;Min_cycle;Max_cycle;Signal;HPM_P1;HPM_P2
2021/11/03 00:00:43;;;;;;;3.50;1.60;;;;;;;3.23;100.00;98397.16;5134922;27;20490;-48
2021/11/03 00:03:49;;;;;;;15.00;2.20;;;;;;;3.25;100.00;98398.19;5135123;27;20534;-48
2021/11/03 00:06:52;;;;;;;2.20;1.98;;;;;;;3.25;100.00;98400.19;5135209;27;20075;-48
2021/11/03 00:09:57;;;;;;;1.45;1.38;;;;;;;3.28;100.00;98400.03;5134967;27;20139;-48
2021/11/03 00:13:00;;;;;;;1.23;1.23;;;;;;;3.27;100.00;98404.00;5135163;27;20050;-48
2021/11/03 00:16:03;;;;;;;3.72;1.52;;;;;;;3.35;100.00;98410.72;5134792;27;20399;-47
2021/11/03 00:19:06;;;;;;;1.10;1.10;;;;;;;3.45;100.00;98412.22;5135217;27;20043;-48
2021/11/03 00:22:10;;;;;;;2.75;2.13;;;;;;;3.46;100.00;98410.22;5117662;27;20089;-47
2021/11/03 00:25:15;;;;;;;2.95;2.42;;;;;;;3.47;100.00;98412.50;5102059;28;20045;-48
2021/11/03 00:28:20;;;;;;;2.75;2.20;;;;;;;4.52;100.00;98406.69;5114149;28;20526;-48
2021/11/03 00:31:24;;;;;;;12.75;2.75;;;;;;;4.76;100.00;98411.41;5113849;28;20169;-48
2021/11/03 00:34:28;;;;;;;2.10;1.77;;;;;;;4.30;100.00;98406.19;5114039;28;20050;-48
2021/11/03 00:37:31;;;;;;;4.28;1.95;;;;;;;3.92;100.00;98416.34;5100745;28;20042;-48
2021/11/03 00:40:34;;;;;;;2.17;1.48;;;;;;;3.93;100.00;98421.38;5113170;28;20039;-48
2021/11/03 00:43:37;;;;;;;2.38;1.52;;;;;;;4.08;100.00;98422.22;5113770;28;20047;-48
2021/11/03 00:46:41;;;;;;;1.40;1.17;;;;;;;4.80;100.00;98406.47;5113278;28;20090;-48
2021/11/03 00:49:44;;;;;;;3.38;2.55;;;;;;;4.92;100.00;98413.72;5113526;28;20073;-48
2021/11/03 00:52:47;;;;;;;5.20;2.20;;;;;;;5.24;100.00;98415.59;5113774;28;20086;-48
2021/11/03 00:55:50;;;;;;;10.40;2.70;;;;;;;5.64;100.00;98418.53;5113753;28;20120;-48
2021/11/03 00:58:53;;;;;;;10.50;2.45;;;;;;;5.77;100.00;98405.19;5113433;28;20061;-48
2021/11/03 01:01:57;;;;;;;3.70;2.60;;;;;;;6.30;100.00;98415.31;5100501;28;20049;-48
2021/11/03 01:05:00;;;;;;;3.90;1.90;;;;;;;6.29;100.00;98409.03;5113072;28;20057;-48
2021/11/03 01:08:13;;;;;;;3.05;1.92;;;;;;;6.27;100.00;98413.50;5100864;28;20051;-48
2021/11/03 01:11:16;;;;;;;5.90;2.10;;;;;;;6.20;100.00;98400.06;5113193;28;20123;-48
2021/11/03 01:14:21;;;;;;;2.28;1.60;;;;;;;6.31;100.00;98412.06;5113261;28;20145;-48
2021/11/03 01:17:24;;;;;;;3.47;1.50;;;;;;;6.43;100.00;98410.94;5113360;28;20388;-48
2021/11/03 01:20:28;;;;;;;5.30;3.33;;;;;;;6.55;100.00;98404.34;5103553;27;20101;-48
2021/11/03 01:23:31;;;;;;;11.00;2.17;;;;;;;6.57;100.00;98404.63;5133911;27;20494;-48
2021/11/03 01:26:35;;;;;;;6.03;1.98;;;;;;;6.65;100.00;98408.47;5133635;27;20061;-48
2021/11/03 01:29:38;;;;;;;4.95;1.63;;;;;;;6.69;100.00;98397.22;5133040;27;20074;-48
2021/11/03 01:32:41;;;;;;;2.35;1.13;;;;;;;6.87;100.00;98405.22;5133918;27;20049;-48
2021/11/03 01:35:44;;;;;;;10.02;2.47;;;;;;;6.95;100.00;98400.81;5133184;27;20387;-48
2021/11/03 01:38:47;;;;;;;3.28;2.22;;;;;;;6.93;100.00;98408.06;5133648;28;20513;-48
2021/11/03 01:41:50;;;;;;;5.68;1.85;;;;;;;7.01;100.00;98401.63;5120647;28;20432;-48
2021/11/03 01:44:54;;;;;;;3.38;1.50;;;;;;;7.12;100.00;98403.75;5133578;28;20058;-48
2021/11/03 01:48:00;;;;;;;3.72;1.83;;;;;;;7.13;100.00;98397.72;5133226;28;20066;-48
2021/11/03 01:51:03;;;;;;;4.30;2.13;;;;;;;7.36;100.00;98405.00;5133412;28;20060;-48
2021/11/03 01:54:10;;;;;;;4.50;2.15;;;;;;;6.81;100.00;98401.63;5133093;28;20050;-47
2021/11/03 01:57:18;;;;;;;5.38;2.65;;;;;;;7.03;100.00;98393.59;5133539;28;20104;-48
2021/11/03 02:00:26;;;;;;;9.57;2.83;;;;;;;7.00;100.00;98404.84;5134142;28;20041;-48
2021/11/03 02:03:30;;;;;;;7.53;2.35;;;;;;;7.02;100.00;98397.59;5121120;28;20096;-48
2021/11/03 02:06:34;;;;;;;9.25;2.47;;;;;;;7.13;100.00;98403.25;5133270;28;20074;-48
2021/11/03 02:09:37;;;;;;;8.75;2.45;;;;;;;7.00;100.00;98399.31;5133602;28;20042;-48
2021/11/03 02:12:39;;;;;;;6.82;2.05;;;;;;;7.07;100.00;98401.66;5133742;28;20050;-47
2021/11/03 02:15:44;;;;;;;3.20;1.85;;;;;;;7.07;100.00;98405.22;5133556;28;20062;-48
2021/11/03 02:18:48;;;;;;;1.98;1.65;;;;;;;7.06;100.00;98409.22;5133346;28;20045;-48
2021/11/03 02:22:14;;;;;;;8.27;1.55;;;;;;;7.16;100.00;98401.53;5133401;27;20046;-47
2021/11/03 02:25:24;;;;;;;11.55;2.40;;;;;;;7.31;100.00;98404.94;5135371;27;20042;-47
2021/11/03 02:28:29;;;;;;;1.73;1.63;;;;;;;7.31;100.00;98414.03;5124338;27;20610;-48
2021/11/03 02:31:39;;;;;;;6.53;2.15;;;;;;;7.30;100.00;98418.03;5137279;27;20099;-48
2021/11/03 02:34:43;;;;;;;9.97;2.67;;;;;;;7.33;100.00;98419.84;5136908;27;20387;-48
2021/11/03 02:37:52;;;;;;;4.20;2.60;;;;;;;7.37;100.00;98422.38;5136884;27;20282;-48
2021/11/03 02:41:02;;;;;;;9.30;2.17;;;;;;;7.24;100.00;98424.75;5136815;27;20042;-52
2021/11/03 02:44:15;;;;;;;10.88;1.60;;;;;;;6.82;100.00;98428.81;5136971;27;20132;-53
2021/11/03 02:47:19;;;;;;;2.75;1.63;;;;;;;7.35;100.00;98436.72;5135775;27;20050;-53
2021/11/03 02:50:22;;;;;;;2.72;1.63;;;;;;;7.48;100.00;98428.78;5137125;27;20046;-53
2021/11/03 02:53:26;;;;;;;7.07;2.28;;;;;;;7.21;100.00;98431.28;5136820;27;20418;-53
2021/11/03 02:56:31;;;;;;;5.32;1.60;;;;;;;7.15;100.00;98439.50;5136560;27;20103;-53
2021/11/03 02:59:34;;;;;;;5.65;1.80;;;;;;;7.67;100.00;98436.78;5136356;27;20050;-53
2021/11/03 03:02:38;;;;;;;1.67;1.20;;;;;;;7.81;100.00;98441.41;5136448;27;20082;-53
2021/11/03 03:05:50;;;;;;;3.75;1.73;;;;;;;7.90;100.00;98442.00;5136409;27;20053;-53
2021/11/03 03:08:53;;;;;;;;;;;;;;;7.83;100.00;98441.69;5136863;27;20054;-53
2021/11/03 03:12:00;;;;;;;5.97;1.55;;;;;;;7.96;100.00;98428.97;5136376;27;19935;-53
2021/11/03 03:15:04;;;;;;;4.13;2.22;;;;;;;8.11;100.00;98437.13;5136512;27;20119;-53
2021/11/03 03:18:07;;;;;;;0.88;0.88;;;;;;;8.08;100.00;98438.88;5136249;27;20052;-53
2021/11/03 03:21:12;;;;;;;7.18;2.05;;;;;;;8.41;100.00;98435.59;5127309;27;20046;-53
2021/11/03 03:24:16;;;;;;;2.92;1.17;;;;;;;8.44;100.00;98428.28;5115812;28;20494;-53
2021/11/03 03:27:19;;;;;;;7.95;2.53;;;;;;;8.42;100.00;98426.03;5115586;28;20460;-53
2021/11/03 03:30:22;;;;;;;2.03;1.65;;;;;;;8.49;100.00;98435.91;5115411;28;20092;-53
2021/11/03 03:33:26;;;;;;;9.48;2.08;;;;;;;8.38;100.00;98425.50;5115581;28;20047;-53
2021/11/03 03:36:29;;;;;;;1.35;1.25;;;;;;;8.50;100.00;98438.16;5114761;28;20078;-53
2021/11/03 03:39:32;;;;;;;2.67;1.15;;;;;;;8.51;100.00;98438.94;5115743;28;20510;-53
2021/11/03 03:42:35;;;;;;;2.88;1.50;;;;;;;8.51;100.00;98439.69;5115614;28;20047;-53
2021/11/03 03:45:38;;;;;;;5.90;2.10;;;;;;;8.39;100.00;98443.66;5115329;28;20058;-53
2021/11/03 03:48:42;;;;;;;4.55;2.35;;;;;;;8.22;100.00;98435.19;5115092;28;20045;-53
2021/11/03 03:51:45;;;;;;;2.20;1.10;;;;;;;8.11;100.00;98437.88;5115156;28;20046;-53
2021/11/03 03:54:48;;;;;;;4.95;1.88;;;;;;;8.21;100.00;98436.44;5115191;28;20047;-53
2021/11/03 03:57:51;;;;;;;6.32;1.23;;;;;;;8.13;100.00;98448.47;5115062;28;20530;-53
2021/11/03 04:00:54;;;;;;;4.53;3.33;;;;;;;8.22;100.00;98451.84;5114949;28;20108;-53
2021/11/03 04:03:57;;;;;;;8.80;2.25;;;;;;;8.19;100.00;98452.03;5115128;28;20054;-53
2021/11/03 04:07:00;;;;;;;6.38;1.77;;;;;;;8.20;100.00;98456.34;5114922;28;20395;-53
2021/11/03 04:10:05;;;;;;;2.92;1.00;;;;;;;8.30;100.00;98472.34;5114909;28;20515;-53
2021/11/03 04:13:09;;;;;;;5.38;1.20;;;;;;;8.26;100.00;98468.28;5114914;28;20126;-53
2021/11/03 04:16:12;;;;;;;1.67;1.58;;;;;;;8.02;100.00;98471.34;5114226;28;20403;-52
2021/11/03 04:19:15;;;;;;;3.30;1.67;;;;;;;8.03;100.00;98472.09;5114098;28;20537;-53
2021/11/03 04:22:18;;;;;;;27.33;1.98;;;;;;;8.02;100.00;98482.44;5133149;27;20518;-53
2021/11/03 04:25:22;;;;;;;10.35;1.38;;;;;;;8.05;100.00;98480.69;5135108;27;20046;-53
2021/11/03 04:28:25;;;;;;;2.15;0.60;;;;;;;7.90;100.00;98489.13;5135087;27;20083;-53
2021/11/03 04:31:28;;;;;;;5.43;2.45;;;;;;;7.87;100.00;98492.09;5135104;27;20050;-53
2021/11/03 04:34:32;;;;;;;2.60;0.82;;;;;;;7.16;100.00;98490.09;5134842;27;20099;-53
2021/11/03 04:37:36;;;;;;;9.95;1.90;;;;;;;7.38;100.00;98495.91;5134786;27;20126;-53
2021/11/03 04:40:39;;;;;;;6.65;1.48;;;;;;;7.57;100.00;98497.88;5134668;27;20115;-53
2021/11/03 04:43:42;;;;;;;1.42;1.33;;;;;;;7.57;100.00;98497.88;5134685;27;20239;-53
2021/11/03 04:46:45;;;;;;;1.98;1.15;;;;;;;7.81;100.00;98499.63;5134578;27;20042;-53
2021/11/03 04:49:49;;;;;;;2.38;1.33;;;;;;;7.93;100.00;98512.31;5134325;27;20104;-53
2021/11/03 04:52:52;;;;;;;4.57;1.13;;;;;;;8.19;100.00;98515.81;5134546;27;20452;-53
2021/11/03 04:55:55;;;;;;;1.77;1.48;;;;;;;8.32;100.00;98508.66;5134603;27;20100;-53
2021/11/03 04:58:59;;;;;;;6.20;2.15;;;;;;;8.42;100.00;98520.34;5134198;27;20034;-53
2021/11/03 05:02:02;;;;;;;2.92;1.70;;;;;;;8.36;100.00;98516.75;5134531;27;20095;-53
2021/11/03 05:05:05;;;;;;;6.95;1.92;;;;;;;8.36;100.00;98522.28;5134465;27;20084;-53
2021/11/03 05:08:09;;;;;;;13.18;1.40;;;;;;;8.36;100.00;98527.84;5134276;27;20046;-53
2021/11/03 05:11:13;;;;;;;5.72;1.33;;;;;;;8.33;100.00;98528.84;5134128;27;20448;-53
2021/11/03 05:14:15;;;;;;;0.73;0.60;;;;;;;7.28;100.00;98536.06;5134480;27;20092;-53
2021/11/03 05:17:18;;;;;;;3.30;1.17;;;;;;;7.68;100.00;98540.78;5134036;27;20165;-53
2021/11/03 05:20:21;;;;;;;8.07;1.90;;;;;;;8.12;100.00;98552.34;5131641;27;20130;-53
2021/11/03 05:23:25;;;;;;;14.77;2.03;;;;;;;7.77;100.00;98543.41;5113408;28;20076;-53
2021/11/03 05:26:27;;;;;;;2.40;0.93;;;;;;;7.96;100.00;98548.16;5113162;28;20063;-53
2021/11/03 05:29:30;;;;;;;16.08;1.65;;;;;;;8.25;100.00;98555.47;5113074;28;20126;-53
2021/11/03 05:32:33;;;;;;;2.38;1.55;;;;;;;8.30;100.00;98544.44;5113446;28;20537;-53
2021/11/03 05:35:37;;;;;;;15.18;3.83;;;;;;;8.25;100.00;98552.72;5113102;28;20434;-53
2021/11/03 05:38:40;;;;;;;6.70;1.70;;;;;;;8.07;100.00;98547.50;5113472;28;20061;-53
2021/11/03 05:41:43;;;;;;;9.30;2.22;;;;;;;7.99;100.00;98560.28;5113364;28;20127;-53
2021/11/03 05:44:47;;;;;;;15.57;2.50;;;;;;;7.99;100.00;98561.00;5113266;28;20495;-53
2021/11/03 05:47:50;;;;;;;9.55;1.42;;;;;;;7.94;100.00;98558.97;5113007;28;20105;-53
2021/11/03 05:50:53;;;;;;;4.82;1.65;;;;;;;7.99;100.00;98561.00;5113148;28;20035;-53
2021/11/03 05:53:56;;;;;;;4.85;0.80;;;;;;;8.00;100.00;98573.63;5112805;28;20104;-53
2021/11/03 05:57:00;;;;;;;6.90;1.65;;;;;;;8.12;100.00;98569.72;5113195;28;20078;-53
2021/11/03 06:00:11;;;;;;;13.70;1.80;;;;;;;8.15;100.00;98559.66;5115798;28;20041;-53
2021/11/03 06:03:14;;;;;;;9.73;2.67;;;;;;;8.22;100.00;98562.00;5117801;28;20104;-53
2021/11/03 06:06:17;;;;;;;0.73;0.73;;;;;;;8.20;100.00;98558.97;5116884;28;20039;-53
2021/11/03 06:09:20;;;;;;;4.78;2.28;;;;;;;8.18;100.00;98556.69;5117146;28;20133;-54
2021/11/03 06:12:23;;;;;;;12.45;1.65;;;;;;;8.18;100.00;98562.22;5117262;28;20395;-53
2021/11/03 06:15:28;;;;;;;6.68;1.48;;;;;;;8.22;100.00;98562.00;5104801;28;20054;-53
2021/11/03 06:18:31;;;;;;;7.82;1.08;;;;;;;8.20;100.00;98570.03;5116884;28;20046;-53
2021/11/03 06:21:34;;;;;;;5.00;2.05;;;;;;;8.05;100.00;98569.41;5128949;27;20046;-53
2021/11/03 06:24:38;;;;;;;1.75;0.85;;;;;;;7.78;100.00;98572.63;5137152;27;20092;-53
2021/11/03 06:27:43;;;;;;;7.00;2.90;;;;;;;7.80;100.00;98573.69;5137163;27;20042;-53
2021/11/03 06:30:46;;;;;;;1.05;0.98;;;;;;;8.08;100.00;98576.72;5137536;27;20046;-54
2021/11/03 06:33:50;;;;;;;16.38;2.70;;;;;;;7.60;100.00;98593.13;5136843;27;20046;-53
2021/11/03 06:36:53;;;;;;;1.45;1.20;;;;;;;7.48;100.00;98600.53;5136943;27;20544;-53
2021/11/03 06:39:56;;;;;;;7.25;2.55;;;;;;;7.80;100.00;98608.94;5136549;27;20038;-54
2021/11/03 06:42:59;;;;;;;29.33;6.43;;;;;;;7.57;100.00;98614.25;5137439;27;20379;-54
2021/11/03 06:46:02;;;;;;;13.90;3.78;;;;;;;7.71;100.00;98618.16;5137229;27;20155;-54
2021/11/03 06:49:05;;;;;;;12.48;1.83;;;;;;;7.35;100.00;98616.72;5136924;27;20042;-53
2021/11/03 06:52:09;;;;;;;3.22;1.83;;;;;;;7.62;100.00;98610.75;5136802;27;20073;-53
2021/11/03 06:55:12;;;;;;;15.75;2.83;;;;;;;7.43;100.00;98612.28;5137127;27;20049;-53
2021/11/03 06:58:16;;;;;;;4.72;1.67;;;;;;;7.41;100.00;98614.78;5136317;27;20190;-53
2021/11/03 07:01:19;;;;;;;11.70;1.60;;;;;;;7.20;100.00;98612.47;5137027;27;20122;-53
2021/11/03 07:04:22;;;;;;;4.72;2.58;;;;;;;7.41;100.00;98617.53;5123975;27;20471;-53
2021/11/03 07:07:25;;;;;;;3.33;2.08;;;;;;;7.68;100.00;98621.91;5136504;27;20116;-53
2021/11/03 07:10:33;;;;;;;13.27;2.70;;;;;;;7.86;100.00;98626.41;5135450;27;20046;-53
2021/11/03 07:13:37;;;;;;;5.82;1.70;;;;;;;7.89;100.00;98633.72;5136387;27;20411;-53
2021/11/03 07:16:40;;;;;;;8.98;2.70;;;;;;;8.00;100.00;98639.41;5136292;27;20049;-53
2021/11/03 07:19:43;;;;;;;4.28;1.55;;;;;;;8.02;100.00;98648.00;5136409;27;20092;-54
2021/11/03 07:22:46;;;;;;;5.63;1.63;;;;;;;8.21;100.00;98632.56;5115558;28;20050;-53
2021/11/03 07:25:49;;;;;;;5.13;1.42;;;;;;;7.84;100.00;98648.31;5115706;28;20045;-54
2021/11/03 07:28:52;;;;;;;4.35;1.75;;;;;;;8.19;100.00;98657.25;5114930;28;20384;-54
2021/11/03 07:31:55;;;;;;;12.60;1.67;;;;;;;8.17;100.00;98660.53;5115783;28;20035;-54
2021/11/03 07:34:58;;;;;;;7.30;2.53;;;;;;;7.89;100.00;98664.22;5115308;28;20042;-54
2021/11/03 07:38:02;;;;;;;5.45;1.60;;;;;;;7.78;100.00;98678.72;5115022;28;20062;-54
2021/11/03 07:41:05;;;;;;;3.38;1.08;;;;;;;7.84;100.00;98674.00;5114604;28;20045;-53
2021/11/03 07:44:08;;;;;;;15.48;2.00;;;;;;;8.05;100.00;98677.53;5102085;28;20439;-54
2021/11/03 07:47:11;;;;;;;5.10;2.40;;;;;;;8.31;100.00;98683.91;5114926;28;20046;-53
2021/11/03 07:50:18;;;;;;;9.15;2.45;;;;;;;8.43;100.00;98685.53;5115212;28;20108;-53
2021/11/03 07:53:22;;;;;;;14.82;2.90;;;;;;;8.63;100.00;98688.25;5114894;28;20532;-53
2021/11/03 07:56:27;;;;;;;3.08;1.25;;;;;;;8.76;100.00;98693.41;5114557;28;20155;-53
2021/11/03 07:59:30;;;;;;;1.65;1.17;;;;;;;8.81;100.00;98696.25;5114445;28;20042;-53
2021/11/03 08:02:33;;;;;;;7.45;1.70;;;;;;;8.53;100.00;98703.56;5120757;27;20119;-53
2021/11/03 08:05:36;;;;;;;2.53;1.67;;;;;;;8.56;100.00;98708.09;5134513;27;20060;-53
2021/11/03 08:08:49;;;;;;;9.57;2.58;;;;;;;8.84;100.00;98706.34;5135375;27;20148;-53
2021/11/03 08:11:57;;;;;;;2.25;2.08;;;;;;;9.09;100.00;98710.34;5134808;27;20096;-53
2021/11/03 08:15:01;;;;;;;3.38;0.93;;;;;;;9.13;100.00;98717.22;5134879;27;20525;-54
2021/11/03 08:18:04;;;;;;;1.33;1.05;;;;;;;9.18;100.00;98719.25;5134592;27;20083;-53
2021/11/03 08:21:10;;;;;;;5.25;1.70;;;;;;;9.18;100.00;98724.81;5134996;27;20489;-53
2021/11/03 08:24:13;;;;;;;11.35;1.75;;;;;;;9.15;100.00;98734.13;5135363;27;20544;-53
2021/11/03 08:27:17;;;;;;;7.07;1.45;;;;;;;9.26;100.00;98736.22;5135396;27;20077;-53
2021/11/03 08:30:20;;;;;;;3.50;1.92;;;;;;;9.45;100.00;98731.81;5135115;27;20046;-53
2021/11/03 08:33:45;;;;;;;3.67;1.40;;;;;;;9.55;100.00;98735.91;5135255;27;20072;-53
2021/11/03 08:36:49;;;;;;;5.88;1.10;;;;;;;9.62;100.00;98745.81;5134402;27;20068;-53
2021/11/03 08:39:53;;;;;;;6.30;1.63;;;;;;;9.66;100.00;98740.78;5134407;27;20065;-53
2021/11/03 08:42:58;;;;;;;3.67;1.27;;;;;;;9.63;100.00;98741.78;5134624;27;20421;-53
2021/11/03 08:46:03;;;;;;;12.80;1.33;;;;;;;9.71;100.00;98742.84;5121734;27;20069;-53
2021/11/03 08:49:05;;;;;;;3.95;1.77;;;;;;;9.48;100.00;98746.75;5134036;27;20046;-53
2021/11/03 08:52:08;;;;;;;4.95;2.00;;;;;;;9.68;100.00;98743.84;5121387;27;20046;-53
2021/11/03 08:55:14;;;;;;;2.58;1.17;;;;;;;9.56;100.00;98748.56;5134016;27;20054;-53
2021/11/03 08:58:20;;;;;;;0.95;0.77;;;;;;;9.69;100.00;98756.47;5134090;27;20085;-53
2021/11/03 09:01:24;;;;;;;4.70;0.75;;;;;;;9.69;100.00;98759.25;5134062;27;20042;-53
2021/11/03 09:04:27;;;;;;;3.22;1.00;;;;;;;9.74;100.00;98756.53;5134114;27;20548;-53
2021/11/03 09:07:32;;;;;;;6.80;1.15;;;;;;;9.83;100.00;98767.44;5133834;27;20077;-53
2021/11/03 09:10:46;;;;;;;3.65;1.83;;;;;;;9.80;100.00;98774.00;5134325;27;20402;-53
2021/11/03 09:13:50;;;;;;;6.78;2.92;;;;;;;9.90;100.00;98774.53;5133978;27;20433;-53
2021/11/03 09:16:53;;;;;;;2.33;2.08;;;;;;;9.90;100.00;98777.31;5133822;27;20091;-53
2021/11/03 09:19:57;;;;;;;7.95;2.28;;;;;;;10.18;100.00;98771.97;5133983;27;20054;-53
2021/11/03 09:23:00;;;;;;;4.70;3.47;;;;;;;10.01;100.00;98782.97;5100797;28;20049;-53
2021/11/03 09:26:03;;;;;;;7.93;1.60;;;;;;;10.18;100.00;98791.44;5113361;28;20453;-53
2021/11/03 09:29:07;;;;;;;19.08;4.07;;;;;;;10.23;100.00;98790.69;5113364;28;20062;-54
2021/11/03 09:32:12;;;;;;;4.00;2.25;;;;;;;10.30;100.00;98790.97;5113007;28;20086;-53
2021/11/03 09:35:16;;;;;;;4.88;2.55;;;;;;;10.36;100.00;98782.63;5111954;28;20169;-53
2021/11/03 09:38:24;;;;;;;12.65;2.75;;;;;;;10.38;100.00;98778.09;5112404;28;20545;-52
2021/11/03 09:41:34;;;;;;;11.88;4.25;;;;;;;10.43;100.00;98785.72;5112802;28;20108;-53
2021/11/03 09:44:37;;;;;;;17.35;3.17;;;;;;;10.44;100.00;98795.56;5112803;28;20089;-53
2021/11/03 09:48:15;;;;;;;13.50;1.92;;;;;;;10.41;100.00;98793.81;5112690;28;20085;-53
2021/11/03 09:51:22;;;;;;;5.18;1.55;;;;;;;10.38;100.00;98796.81;5112915;28;20081;-53
2021/11/03 09:54:32;;;;;;;11.63;2.33;;;;;;;10.25;100.00;98805.63;5112863;28;20442;-52
2021/11/03 09:57:48;;;;;;;7.05;2.40;;;;;;;10.23;100.00;98808.13;5112871;28;20084;-53
2021/11/03 10:01:05;;;;;;;16.65;2.22;;;;;;;10.31;100.00;98806.41;5112293;28;20185;-53
2021/11/03 10:04:28;;;;;;;3.63;2.05;;;;;;;10.38;100.00;98808.72;5112590;28;20054;-53
2021/11/03 10:07:41;;;;;;;11.60;2.85;;;;;;;10.37;100.00;98815.53;5112760;28;20042;-53
2021/11/03 10:11:02;;;;;;;2.13;1.58;;;;;;;10.43;100.00;98816.34;5112067;28;20070;-53
2021/11/03 10:14:06;;;;;;;8.90;1.85;;;;;;;10.44;100.00;98820.63;5112883;28;20133;-53
2021/11/03 10:17:25;;;;;;;4.97;2.00;;;;;;;10.38;100.00;98825.41;5112545;28;20043;-53
2021/11/03 10:20:39;;;;;;;3.53;1.73;;;;;;;10.10;100.00;98821.69;5121602;28;20053;-53
2021/11/03 10:23:58;;;;;;;2.65;1.27;;;;;;;10.20;100.00;98823.03;5133115;28;20095;-47
2021/11/03 10:27:04;;;;;;;12.20;3.65;;;;;;;10.33;100.00;98820.56;5133492;28;20391;-47
2021/11/03 10:30:36;;;;;;;3.45;2.33;;;;;;;10.49;100.00;98828.25;5133334;28;20046;-47
2021/11/03 10:33:41;;;;;;;4.65;1.35;;;;;;;10.59;100.00;98835.13;5124445;28;20540;-47
2021/11/03 10:36:47;;;;;;;8.02;1.85;;;;;;;10.66;100.00;98837.44;5132856;28;20046;-47
2021/11/03 10:39:51;;;;;;;10.23;2.03;;;;;;;10.79;100.00;98841.75;5132813;28;20514;-48
2021/11/03 10:43:02;;;;;;;9.25;2.53;;;;;;;10.78;100.00;98837.47;5132710;28;20088;-47
2021/11/03 10:46:29;;;;;;;;;;;;;;;10.72;100.00;98836.69;5134437;27;20504;-47
2021/11/03 10:49:48;;;;;;;2.38;1.90;;;;;;;10.63;100.00;98843.97;5136878;27;19967;-47
2021/11/03 10:53:12;;;;;;;6.35;2.15;;;;;;;10.61;100.00;98852.06;5136410;27;20042;-48
2021/11/03 10:56:20;;;;;;;11.90;2.47;;;;;;;10.29;100.00;98847.88;5137054;27;20057;-47
2021/11/03 10:59:36;;;;;;;2.97;1.88;;;;;;;10.29;100.00;98852.69;5136464;27;20115;-47
2021/11/03 11:02:54;;;;;;;5.30;2.75;;;;;;;10.26;100.00;98848.91;5136545;27;20525;-48
2021/11/03 11:06:07;;;;;;;3.67;2.00;;;;;;;10.34;100.00;98860.31;5136089;27;20692;-47
2021/11/03 11:09:10;;;;;;;3.22;1.60;;;;;;;10.31;100.00;98866.88;5136235;27;20468;-47
2021/11/03 11:12:20;;;;;;;4.50;2.42;;;;;;;10.30;100.00;98866.13;5136367;27;20403;-47
2021/11/03 11:15:37;;;;;;;4.07;2.25;;;;;;;10.31;100.00;98862.06;5136140;27;20061;-47
2021/11/03 11:18:48;;;;;;;4.03;1.88;;;;;;;10.39;100.00;98862.38;5135928;27;20065;-47
2021/11/03 11:21:57;;;;;;;5.28;2.33;;;;;;;10.41;100.00;98860.59;5135987;27;20136;-47
2021/11/03 11:25:09;;;;;;;2.45;1.48;;;;;;;10.56;100.00;98872.31;5136120;27;20528;-47
2021/11/03 11:28:27;;;;;;;4.95;2.38;;;;;;;10.63;100.00;98869.03;5136141;27;20046;-47
2021/11/03 11:32:01;;;;;;;3.20;1.65;;;;;;;10.64;100.00;98870.56;5136213;27;20072;-47
2021/11/03 11:35:17;;;;;;;2.40;1.10;;;;;;;10.74;100.00;98864.81;5135747;27;20038;-48
2021/11/03 11:38:39;;;;;;;5.93;1.52;;;;;;;10.58;100.00;98858.66;5135691;27;20046;-47
2021/11/03 11:41:48;;;;;;;2.10;1.25;;;;;;;10.55;100.00;98870.78;5135619;27;20157;-47
2021/11/03 11:45:02;;;;;;;0.95;0.85;;;;;;;10.59;100.00;98874.09;5136036;27;20504;-47
2021/11/03 11:48:32;;;;;;;0.85;0.60;;;;;;;10.63;100.00;98871.81;5135203;27;20081;-47
2021/11/03 11:51:38;;;;;;;9.23;1.60;;;;;;;10.71;100.00;98868.56;5135347;27;20163;-48
2021/11/03 11:55:04;;;;;;;0.65;0.50;;;;;;;10.81;100.00;98876.22;5134983;27;20379;-47
2021/11/03 11:58:07;;;;;;;2.33;1.33;;;;;;;10.81;100.00;98869.88;5135280;27;20402;-48
2021/11/03 12:01:29;;;;;;;2.10;0.80;;;;;;;10.73;100.00;98877.19;5133676;27;20085;-48
2021/11/03 12:04:39;;;;;;;1.10;0.63;;;;;;;10.74;100.00;98867.59;5133064;27;20399;-47
2021/11/03 12:07:43;;;;;;;5.13;0.80;;;;;;;10.82;100.00;98871.41;5134377;27;20074;-47
2021/11/03 12:10:55;;;;;;;2.30;1.35;;;;;;;10.80;100.00;98873.94;5134189;27;20043;-47
2021/11/03 12:14:10;;;;;;;0.75;0.75;;;;;;;10.77;100.00;98880.50;5134335;27;20050;-47
2021/11/03 12:17:35;;;;;;;0.70;0.50;;;;;;;10.84;100.00;98880.00;5134796;27;20047;-47
2021/11/03 12:20:42;;;;;;;3.10;0.95;;;;;;;11.06;100.00;98883.66;5129527;27;20039;-47
2021/11/03 12:23:55;;;;;;;2.08;0.98;;;;;;;11.14;100.00;98875.56;5113974;28;20127;-48
2021/11/03 12:27:22;;;;;;;0.70;0.70;;;;;;;11.16;100.00;98876.56;5114065;28;20047;-47
2021/11/03 12:30:37;;;;;;;0.63;0.63;;;;;;;11.15;100.00;98871.50;5131712;27;20046;-47
2021/11/03 12:34:09;;;;;;;2.53;0.63;;;;;;;11.38;100.00;98873.06;5101449;27;20108;-47
2021/11/03 12:37:24;;;;;;;1.75;0.43;;;;;;;11.78;100.00;98875.38;5132753;27;20532;-47
2021/11/03 12:40:40;;;;;;;14.30;0.65;;;;;;;12.08;100.00;98878.44;5131421;27;20154;-47
2021/11/03 12:43:50;;;;;;;0.40;0.30;;;;;;;12.21;100.00;98880.69;5130721;27;20084;-47
2021/11/03 12:46:53;;;;;;;0.43;0.10;;;;;;;12.18;100.00;98888.06;5132049;27;20080;-47
2021/11/03 12:50:03;;;;;;;0.30;0.22;;;;;;;12.12;100.00;98888.06;5132478;27;20042;-47
2021/11/03 12:53:23;;;;;;;4.03;0.85;;;;;;;12.05;100.00;98888.59;5131121;27;20074;-47
2021/11/03 12:56:29;;;;;;;0.20;0.10;;;;;;;12.08;100.00;98895.91;5133937;27;20050;-47
2021/11/03 12:59:36;;;;;;;0.57;0.32;;;;;;;12.16;100.00;98885.78;5133856;27;20172;-47
2021/11/03 13:02:45;;;;;;;0.40;0.10;;;;;;;12.23;100.00;98894.91;5133932;27;20038;-47
2021/11/03 13:05:49;;;;;;;0.22;0.20;;;;;;;12.23;100.00;98898.47;5133561;27;20044;-47
2021/11/03 13:08:52;;;;;;;0.60;0.28;;;;;;;12.21;100.00;98887.03;5119962;27;20427;-47
2021/11/03 13:11:56;;;;;;;0.30;0.10;;;;;;;12.30;100.00;98899.97;5133680;27;20045;-47
2021/11/03 13:15:19;;;;;;;0.17;0.13;;;;;;;12.25;100.00;98898.69;5133651;27;20100;-47
2021/11/03 13:18:27;;;;;;;0.13;0.13;;;;;;;12.22;100.00;98893.38;5134012;27;20078;-47
2021/11/03 13:21:34;;;;;;;0.40;0.40;;;;;;;12.03;100.00;98891.13;5133354;27;20084;-47
2021/11/03 13:24:37;;;;;;;0.13;0.13;;;;;;;11.82;100.00;98901.03;5123233;27;20403;-47
2021/11/03 13:27:41;;;;;;;0.20;0.20;;;;;;;11.60;100.00;98889.81;5114055;27;20057;-47
2021/11/03 13:30:52;;;;;;;0.10;0.10;;;;;;;11.28;100.00;98891.31;5132951;27;20053;-47
2021/11/03 13:34:21;;;;;;;1.90;0.85;;;;;;;11.19;100.00;98905.47;5121769;27;20267;-47
2021/11/03 13:37:33;;;;;;;0.20;0.20;;;;;;;11.08;100.00;98902.63;5132893;27;20058;-47
2021/11/03 13:40:41;;;;;;;0.20;0.17;;;;;;;10.98;100.00;98898.56;5133244;27;20047;-47
2021/11/03 13:44:31;;;;;;;0.10;0.10;;;;;;;10.99;100.00;98905.66;5132869;28;20103;-47
2021/11/03 13:47:36;;;;;;;0.20;0.20;;;;;;;11.22;100.00;98908.00;5134868;28;20080;-47
2021/11/03 13:50:48;;;;;;;0.73;0.35;;;;;;;11.54;100.00;98903.00;5133817;28;20054;-47
2021/11/03 13:53:58;;;;;;;0.20;0.20;;;;;;;11.93;100.00;98901.00;5133292;28;20042;-47
2021/11/03 13:57:24;;;;;;;0.10;0.10;;;;;;;12.16;100.00;98902.53;5133698;28;20520;-47
2021/11/03 14:00:31;;;;;;;0.25;0.25;;;;;;;12.13;100.00;98909.13;5133170;28;20512;-47
2021/11/03 14:03:36;;;;;;;0.10;0.10;;;;;;;12.14;100.00;98902.28;5133301;28;20144;-47
2021/11/03 14:06:46;;;;;;;0.45;0.20;;;;;;;12.05;100.00;98910.91;5133239;28;20045;-53
2021/11/03 14:09:51;;;;;;;0.10;0.10;;;;;;;11.98;100.00;98914.19;5133691;28;20134;-51
2021/11/03 14:12:54;;;;;;;0.20;0.10;;;;;;;11.88;100.00;98914.97;5133378;28;20134;-53
2021/11/03 14:16:18;;;;;;;0.17;0.17;;;;;;;11.79;100.00;98915.97;5133381;28;20046;-52
2021/11/03 14:19:33;;;;;;;0.45;0.13;;;;;;;11.80;100.00;98925.84;5132593;27;20053;-52
2021/11/03 14:22:39;;;;;;;1.15;0.63;;;;;;;11.81;100.00;98921.81;5136906;27;20054;-53
2021/11/03 14:25:43;;;;;;;0.13;0.10;;;;;;;11.79;100.00;98923.56;5137020;27;20046;-52
2021/11/03 14:28:46;;;;;;;0.15;0.15;;;;;;;11.76;100.00;98928.13;5136549;27;20772;-52
2021/11/03 14:31:52;;;;;;;0.10;0.10;;;;;;;11.66;100.00;98924.06;5136431;27;20050;-53
2021/11/03 14:34:58;;;;;;;0.10;0.10;;;;;;;11.64;100.00;98929.38;5136783;27;20046;-52